createdAt,value
2018-04-07T00:02:20.768Z,6.10
2018-04-07T00:04:48.020Z,5.53
2018-04-07T00:07:15.368Z,5.97
2018-04-07T00:09:42.644Z,5.90
2018-04-07T00:12:09.892Z,5.30
2018-04-07T00:14:37.164Z,6.40
2018-04-07T00:17:04.448Z,6.37
2018-04-07T00:19:31.702Z,6.10
2018-04-07T00:21:58.998Z,6.20
2018-04-07T00:24:26.240Z,6.63
2018-04-07T00:26:53.604Z,6.20
2018-04-07T00:29:20.856Z,5.93
2018-04-07T00:31:48.205Z,7.57
2018-04-07T00:34:15.465Z,6.60
2018-04-07T00:36:42.824Z,6.00
2018-04-07T00:39:10.078Z,6.00
2018-04-07T00:41:37.423Z,6.13
2018-04-07T00:44:04.673Z,6.37
2018-04-07T00:46:31.925Z,6.53
2018-04-07T00:48:59.211Z,6.57
2018-04-07T00:51:26.460Z,6.53
2018-04-07T00:53:53.712Z,6.40
2018-04-07T00:56:21.044Z,6.40
2018-04-07T00:58:48.334Z,6.40
2018-04-07T01:01:15.578Z,6.20
2018-04-07T01:03:42.912Z,5.90
2018-04-07T01:06:10.189Z,6.60
2018-04-07T01:08:37.460Z,7.00
2018-04-07T01:11:04.726Z,6.27
2018-04-07T01:13:32.039Z,7.57
2018-04-07T01:15:59.292Z,7.30
2018-04-07T01:18:26.642Z,6.20
2018-04-07T01:20:53.889Z,6.37
2018-04-07T01:23:21.244Z,7.33
2018-04-07T01:25:48.505Z,6.63
2018-04-07T01:28:15.781Z,10.30
2018-04-07T01:30:43.108Z,6.90
2018-04-07T01:33:10.364Z,7.00
2018-04-07T01:35:37.657Z,6.40
2018-04-07T01:38:04.921Z,7.03
2018-04-07T01:40:32.181Z,6.03
2018-04-07T01:42:59.456Z,7.50
2018-04-07T01:45:26.728Z,7.50
2018-04-07T01:47:53.985Z,6.90
2018-04-07T01:50:21.244Z,7.13
2018-04-07T01:52:48.526Z,6.90
2018-04-07T01:55:15.847Z,7.57
2018-04-07T01:57:43.105Z,6.77
2018-04-07T02:00:10.385Z,6.47
2018-04-07T02:02:37.712Z,6.40
2018-04-07T02:05:04.989Z,7.20
2018-04-07T02:07:32.247Z,8.50
2018-04-07T02:09:59.501Z,8.37
2018-04-07T02:12:26.827Z,8.67
2018-04-07T02:14:54.076Z,7.90
2018-04-07T02:17:21.337Z,8.10
2018-04-07T02:19:48.616Z,7.67
2018-04-07T02:22:16.764Z,7.70
2018-04-07T02:24:44.012Z,7.20
2018-04-07T02:27:11.291Z,8.00
2018-04-07T02:29:38.624Z,7.70
2018-04-07T02:32:05.877Z,7.83
2018-04-07T02:34:33.161Z,7.87
2018-04-07T02:37:00.443Z,8.93
2018-04-07T02:39:27.710Z,7.03
2018-04-07T02:41:54.950Z,7.33
2018-04-07T02:44:22.241Z,8.07
2018-04-07T02:46:49.518Z,7.10
2018-04-07T02:49:16.783Z,7.70
2018-04-07T02:51:44.062Z,7.30
2018-04-07T02:54:11.321Z,7.23
2018-04-07T02:56:38.578Z,7.10
2018-04-07T02:59:05.889Z,7.60
2018-04-07T03:01:33.142Z,6.77
2018-04-07T03:04:00.482Z,8.97
2018-04-07T03:06:27.762Z,7.70
2018-04-07T03:08:55.021Z,8.03
2018-04-07T03:11:22.334Z,7.00
2018-04-07T03:13:49.579Z,6.50
2018-04-07T03:16:16.857Z,6.93
2018-04-07T03:18:44.109Z,6.30
2018-04-07T03:21:11.453Z,7.30
2018-04-07T03:23:38.707Z,6.80
2018-04-07T03:26:05.961Z,7.40
2018-04-07T03:28:33.237Z,7.33
2018-04-07T03:31:00.491Z,7.40
2018-04-07T03:33:27.824Z,9.30
2018-04-07T03:35:55.091Z,7.67
2018-04-07T03:38:22.379Z,7.70
2018-04-07T03:40:49.629Z,7.03
2018-04-07T03:43:17.872Z,7.03
2018-04-07T03:45:45.120Z,7.07
2018-04-07T03:48:12.401Z,6.37
2018-04-07T03:50:39.680Z,7.53
2018-04-07T03:53:06.961Z,7.27
2018-04-07T03:55:34.214Z,6.90
2018-04-07T03:58:01.481Z,6.57
2018-04-07T04:00:28.729Z,7.00
2018-04-07T04:02:55.982Z,6.43
2018-04-07T04:05:23.270Z,6.90
2018-04-07T04:07:50.545Z,7.87
2018-04-07T04:10:17.861Z,7.13
2018-04-07T04:12:45.112Z,7.13
2018-04-07T04:15:12.392Z,7.80
2018-04-07T04:17:39.654Z,7.30
2018-04-07T04:20:06.936Z,7.67
2018-04-07T04:22:34.221Z,7.60
2018-04-07T04:25:01.516Z,7.00
2018-04-07T04:27:28.828Z,7.77
2018-04-07T04:29:56.113Z,8.10
2018-04-07T04:32:23.362Z,7.03
2018-04-07T04:34:50.617Z,6.67
2018-04-07T04:37:17.896Z,7.90
2018-04-07T04:39:45.149Z,6.60
2018-04-07T04:42:12.412Z,7.50
2018-04-07T04:44:39.705Z,7.50
2018-04-07T04:47:06.961Z,7.40
2018-04-07T04:49:34.225Z,7.30
2018-04-07T04:52:01.496Z,7.63
2018-04-07T04:54:28.754Z,6.40
2018-04-07T04:56:56.076Z,7.30
2018-04-07T04:59:23.357Z,6.90
2018-04-07T05:01:50.612Z,7.30
2018-04-07T05:04:17.903Z,6.63
2018-04-07T05:06:45.179Z,7.00
2018-04-07T05:09:12.460Z,6.90
2018-04-07T05:11:39.728Z,6.93
2018-04-07T05:14:06.984Z,6.83
2018-04-07T05:16:34.238Z,6.67
2018-04-07T05:19:01.518Z,7.80
2018-04-07T05:21:28.783Z,7.40
2018-04-07T05:23:56.059Z,7.20
2018-04-07T05:26:23.339Z,6.60
2018-04-07T05:28:50.626Z,7.90
2018-04-07T05:31:17.884Z,6.50
2018-04-07T05:33:45.207Z,7.27
2018-04-07T05:36:12.459Z,8.33
2018-04-07T05:38:39.738Z,7.00
2018-04-07T05:41:06.999Z,6.77
2018-04-07T05:43:34.254Z,6.80
2018-04-07T05:46:01.540Z,7.80
2018-04-07T05:48:28.792Z,7.20
2018-04-07T05:50:56.059Z,6.77
2018-04-07T05:53:23.334Z,7.80
2018-04-07T05:55:50.645Z,7.50
2018-04-07T05:58:17.908Z,6.47
2018-04-07T06:00:45.169Z,7.20
2018-04-07T06:03:12.465Z,6.63
2018-04-07T06:05:39.715Z,6.83
2018-04-07T06:08:07.000Z,7.37
2018-04-07T06:10:34.284Z,6.73
2018-04-07T06:13:01.573Z,7.80
2018-04-07T06:15:28.842Z,8.10
2018-04-07T06:17:56.113Z,7.03
2018-04-07T06:20:23.373Z,7.13
2018-04-07T06:22:50.714Z,6.53
2018-04-07T06:25:17.916Z,7.90
2018-04-07T06:27:45.177Z,7.30
2018-04-07T06:30:12.515Z,6.77
2018-04-07T06:32:39.766Z,7.40
2018-04-07T06:35:07.049Z,7.90
2018-04-07T06:37:34.316Z,7.50
2018-04-07T06:40:01.625Z,8.10
2018-04-07T06:42:28.880Z,8.17
2018-04-07T06:44:56.136Z,7.20
2018-04-07T06:47:23.428Z,8.10
2018-04-07T06:49:50.695Z,7.70
2018-04-07T06:52:17.996Z,7.90
2018-04-07T06:54:45.261Z,7.70
2018-04-07T06:57:12.554Z,7.70
2018-04-07T06:59:39.805Z,7.77
2018-04-07T07:02:07.116Z,8.13
2018-04-07T07:04:34.372Z,8.87
2018-04-07T07:07:01.680Z,8.00
2018-04-07T07:09:28.928Z,8.90
2018-04-07T07:11:56.188Z,8.67
2018-04-07T07:14:23.484Z,8.60
2018-04-07T07:16:50.760Z,8.70
2018-04-07T07:19:18.096Z,8.60
2018-04-07T07:21:45.391Z,7.90
2018-04-07T07:24:12.678Z,9.47
2018-04-07T07:26:39.927Z,8.83
2018-04-07T07:29:07.225Z,8.70
2018-04-07T07:31:34.485Z,9.57
2018-04-07T07:34:01.826Z,9.10
2018-04-07T07:36:29.173Z,8.00
2018-04-07T07:38:56.460Z,10.90
2018-04-07T07:41:23.716Z,8.80
2018-04-07T07:43:51.006Z,8.90
2018-04-07T07:46:18.259Z,9.50
2018-04-07T07:48:45.544Z,8.77
2018-04-07T07:51:12.807Z,8.17
2018-04-07T07:53:40.093Z,9.00
2018-04-07T07:56:07.344Z,8.80
2018-04-07T07:58:34.632Z,9.07
2018-04-07T08:01:01.972Z,8.97
2018-04-07T08:03:29.212Z,9.30
2018-04-07T08:05:56.486Z,9.60
2018-04-07T08:08:23.766Z,8.90
2018-04-07T08:10:51.133Z,8.53
2018-04-07T08:13:18.417Z,9.27
2018-04-07T08:15:45.672Z,8.67
2018-04-07T08:18:12.960Z,9.37
2018-04-07T08:20:40.286Z,9.40
2018-04-07T08:23:07.517Z,9.80
2018-04-07T08:25:34.773Z,9.60
2018-04-07T08:28:02.065Z,10.27
2018-04-07T08:30:29.322Z,8.90
2018-04-07T08:32:56.618Z,7.90
2018-04-07T08:35:23.900Z,8.87
2018-04-07T08:37:51.164Z,9.27
2018-04-07T08:40:18.441Z,8.80
2018-04-07T08:42:45.688Z,9.17
2018-04-07T08:45:12.949Z,9.00
2018-04-07T08:47:40.228Z,8.80
2018-04-07T08:50:07.488Z,8.53
2018-04-07T08:52:34.774Z,8.90
2018-04-07T08:55:02.028Z,10.37
2018-04-07T08:57:29.352Z,9.23
2018-04-07T08:59:56.704Z,9.10
2018-04-07T09:02:23.969Z,10.03
2018-04-07T09:04:51.313Z,9.00
2018-04-07T09:07:18.671Z,9.30
2018-04-07T09:09:46.035Z,8.87
2018-04-07T09:12:13.319Z,9.43
2018-04-07T09:14:40.628Z,9.40
2018-04-07T09:17:07.882Z,9.27
2018-04-07T09:19:35.145Z,10.63
2018-04-07T09:22:02.437Z,9.60
2018-04-07T09:24:29.699Z,9.37
2018-04-07T09:26:56.980Z,10.90
2018-04-07T09:29:24.261Z,12.50
2018-04-07T09:31:51.553Z,11.30
2018-04-07T09:34:18.857Z,9.33
2018-04-07T09:36:46.113Z,10.50
2018-04-07T09:39:13.409Z,10.47
2018-04-07T09:41:40.661Z,9.97
2018-04-07T09:44:07.922Z,9.87
2018-04-07T09:46:35.206Z,10.73
2018-04-07T09:49:02.474Z,9.47
2018-04-07T09:51:29.735Z,10.23
2018-04-07T09:53:57.020Z,10.97
2018-04-07T09:56:24.300Z,10.10
2018-04-07T09:58:51.585Z,10.83
2018-04-07T10:01:18.853Z,11.70
2018-04-07T10:03:46.138Z,11.40
2018-04-07T10:06:13.469Z,11.47
2018-04-07T10:08:40.761Z,12.07
2018-04-07T10:11:08.058Z,10.63
2018-04-07T10:13:35.372Z,10.13
2018-04-07T10:16:02.597Z,9.70
2018-04-07T10:18:29.887Z,12.23
2018-04-07T10:20:57.152Z,10.13
2018-04-07T10:23:24.441Z,10.97
2018-04-07T10:25:51.705Z,10.70
2018-04-07T10:28:18.992Z,9.73
2018-04-07T10:30:46.286Z,10.57
2018-04-07T10:33:13.576Z,11.57
2018-04-07T10:35:40.852Z,10.97
2018-04-07T10:38:08.142Z,9.87
2018-04-07T10:40:35.410Z,11.53
2018-04-07T10:43:02.702Z,10.77
2018-04-07T10:45:29.995Z,10.83
2018-04-07T10:47:57.317Z,10.10
2018-04-07T10:50:24.605Z,10.30
2018-04-07T10:52:52.089Z,10.87
2018-04-07T10:55:19.348Z,10.20
2018-04-07T10:57:46.620Z,11.00
2018-04-07T11:00:13.909Z,10.40
2018-04-07T11:02:41.236Z,10.50
2018-04-07T11:05:10.210Z,11.77
2018-04-07T11:07:37.548Z,11.30
2018-04-07T11:10:04.842Z,10.50
2018-04-07T11:12:32.131Z,10.50
2018-04-07T11:14:59.400Z,11.03
2018-04-07T11:17:26.692Z,9.70
2018-04-07T11:19:53.973Z,9.83
2018-04-07T11:22:21.246Z,10.80
2018-04-07T11:24:48.516Z,10.90
2018-04-07T11:27:15.804Z,9.63
2018-04-07T11:29:43.065Z,9.97
2018-04-07T11:32:10.357Z,10.73
2018-04-07T11:34:37.623Z,10.50
2018-04-07T11:37:04.893Z,10.50
2018-04-07T11:39:32.196Z,10.80
2018-04-07T11:41:59.459Z,10.57
2018-04-07T11:44:26.749Z,10.27
2018-04-07T11:46:54.044Z,10.50
2018-04-07T11:49:21.305Z,11.10
2018-04-07T11:51:48.592Z,11.00
2018-04-07T11:54:15.894Z,12.07
2018-04-07T11:56:43.157Z,11.00
2018-04-07T11:59:10.449Z,12.47
2018-04-07T12:01:37.716Z,10.60
2018-04-07T12:04:05.013Z,11.43
2018-04-07T12:06:32.280Z,10.60
2018-04-07T12:08:59.576Z,11.00
2018-04-07T12:11:26.878Z,11.90
2018-04-07T12:13:54.106Z,11.70
2018-04-07T12:16:21.392Z,11.93
2018-04-07T12:18:48.703Z,9.50
2018-04-07T12:21:15.958Z,10.23
2018-04-07T12:23:43.454Z,11.17
2018-04-07T12:26:10.712Z,9.70
2018-04-07T12:28:37.995Z,10.33
2018-04-07T12:31:05.290Z,10.50
2018-04-07T12:33:32.552Z,11.47
2018-04-07T12:35:59.835Z,9.07
2018-04-07T12:38:27.089Z,8.90
2018-04-07T12:40:54.374Z,8.30
2018-04-07T12:43:21.665Z,11.30
2018-04-07T12:45:48.929Z,11.87
2018-04-07T12:48:16.198Z,10.37
2018-04-07T12:50:43.485Z,11.33
2018-04-07T12:53:10.769Z,9.33
2018-04-07T12:55:38.025Z,9.17
2018-04-07T12:58:05.316Z,9.07
2018-04-07T13:00:32.604Z,7.57
2018-04-07T13:02:59.856Z,10.20
2018-04-07T13:05:27.149Z,8.40
2018-04-07T13:07:54.444Z,8.17
2018-04-07T13:10:21.706Z,8.10
2018-04-07T13:12:48.976Z,8.53
2018-04-07T13:15:16.253Z,8.97
2018-04-07T13:17:43.513Z,8.17
2018-04-07T13:20:10.773Z,8.50
2018-04-07T13:22:38.060Z,7.97
2018-04-07T13:25:05.319Z,8.10
2018-04-07T13:27:32.605Z,7.67
2018-04-07T13:29:59.880Z,8.00
2018-04-07T13:32:27.141Z,8.13
2018-04-07T13:34:54.426Z,8.30
2018-04-07T13:37:21.709Z,8.03
2018-04-07T13:39:49.000Z,7.70
2018-04-07T13:42:16.268Z,8.50
2018-04-07T13:44:43.534Z,10.57
2018-04-07T13:47:10.825Z,8.90
2018-04-07T13:49:38.080Z,7.97
2018-04-07T13:52:05.365Z,8.50
2018-04-07T13:54:32.652Z,9.00
2018-04-07T13:56:59.913Z,8.40
2018-04-07T13:59:27.215Z,7.53
2018-04-07T14:01:54.464Z,8.90
2018-04-07T14:04:21.758Z,7.70
2018-04-07T14:06:49.689Z,8.73
2018-04-07T14:09:17.238Z,8.03
2018-04-07T14:11:45.212Z,7.20
2018-04-07T14:14:12.876Z,8.17
2018-04-07T14:16:40.243Z,7.07
2018-04-07T14:19:07.500Z,7.63
2018-04-07T14:21:34.774Z,6.93
2018-04-07T14:24:02.063Z,7.97
2018-04-07T14:26:29.356Z,6.70
2018-04-07T14:28:56.613Z,6.70
2018-04-07T14:31:23.869Z,6.27
2018-04-07T14:33:51.157Z,6.40
2018-04-07T14:36:18.449Z,7.10
2018-04-07T14:38:45.705Z,7.03
2018-04-07T14:41:12.989Z,7.30
2018-04-07T14:43:40.254Z,6.57
2018-04-07T14:46:07.533Z,6.90
2018-04-07T14:48:34.824Z,6.00
2018-04-07T14:51:02.077Z,5.87
2018-04-07T14:53:29.361Z,7.40
2018-04-07T14:55:56.647Z,6.10
2018-04-07T14:58:23.916Z,6.40
2018-04-07T15:00:51.208Z,12.70
2018-04-07T15:03:18.559Z,5.80
2018-04-07T15:05:45.757Z,6.83
2018-04-07T15:08:13.016Z,6.30
2018-04-07T15:10:41.059Z,6.47
2018-04-07T15:13:08.317Z,5.70
2018-04-07T15:15:35.602Z,5.90
2018-04-07T15:18:02.853Z,5.97
2018-04-07T15:20:30.109Z,6.10
2018-04-07T15:22:57.389Z,7.47
2018-04-07T15:25:24.649Z,6.50
2018-04-07T15:27:51.905Z,6.73
2018-04-07T15:30:19.181Z,7.97
2018-04-07T15:32:46.439Z,7.73
2018-04-07T15:35:13.739Z,7.80
2018-04-07T15:37:40.996Z,7.40
2018-04-07T15:40:08.253Z,7.07
2018-04-07T15:42:35.548Z,6.97
2018-04-07T15:45:03.133Z,7.30
2018-04-07T15:47:30.381Z,7.50
2018-04-07T15:49:57.672Z,6.67
2018-04-07T15:52:24.928Z,7.20
2018-04-07T15:54:52.213Z,7.63
2018-04-07T15:57:19.504Z,7.00
2018-04-07T15:59:46.766Z,7.23
2018-04-07T16:02:14.049Z,6.60
2018-04-07T16:04:41.332Z,6.63
2018-04-07T16:07:08.593Z,5.90
2018-04-07T16:09:35.880Z,6.40
2018-04-07T16:12:03.141Z,6.27
2018-04-07T16:14:30.425Z,6.50
2018-04-07T16:16:57.689Z,7.20
2018-04-07T16:19:24.986Z,6.50
2018-04-07T16:21:52.220Z,5.97
2018-04-07T16:24:19.511Z,6.10
2018-04-07T16:26:46.768Z,6.80
2018-04-07T16:29:14.049Z,5.73
2018-04-07T16:31:41.313Z,6.50
2018-04-07T16:34:08.600Z,6.80
2018-04-07T16:36:35.868Z,7.13
2018-04-07T16:39:03.118Z,6.80
2018-04-07T16:41:30.400Z,6.43
2018-04-07T16:43:57.699Z,7.50
2018-04-07T16:46:24.955Z,7.60
2018-04-07T16:48:52.213Z,8.33
2018-04-07T16:51:19.496Z,8.30
2018-04-07T16:53:46.787Z,7.40
2018-04-07T16:56:14.041Z,6.93
2018-04-07T16:58:41.333Z,7.07
2018-04-07T17:01:08.593Z,7.07
2018-04-07T17:03:35.880Z,6.87
2018-04-07T17:06:03.131Z,6.17
2018-04-07T17:08:30.389Z,6.73
2018-04-07T17:10:57.672Z,6.30
2018-04-07T17:13:24.936Z,6.50
2018-04-07T17:15:52.906Z,6.13
2018-04-07T17:18:20.654Z,6.70
2018-04-07T17:20:47.844Z,6.13
2018-04-07T17:23:15.101Z,5.77
2018-04-07T17:25:42.379Z,5.00
2018-04-07T17:28:09.628Z,5.70
2018-04-07T17:30:36.920Z,6.70
2018-04-07T17:33:04.220Z,5.30
2018-04-07T17:35:31.482Z,5.37
2018-04-07T17:37:58.728Z,5.37
2018-04-07T17:40:26.011Z,5.30
2018-04-07T17:42:53.293Z,4.80
2018-04-07T17:45:20.578Z,5.10
2018-04-07T17:47:47.862Z,5.30
2018-04-07T17:50:15.146Z,5.00
2018-04-07T17:52:43.465Z,5.30
2018-04-07T17:55:10.776Z,4.93
2018-04-07T17:57:38.074Z,4.63
2018-04-07T18:00:05.329Z,6.37
2018-04-07T18:02:32.592Z,6.10
2018-04-07T18:04:59.880Z,5.50
2018-04-07T18:07:27.172Z,5.67
2018-04-07T18:09:54.428Z,5.00
2018-04-07T18:12:21.681Z,5.63
2018-04-07T18:14:48.965Z,4.37
2018-04-07T18:17:16.224Z,5.23
2018-04-07T18:19:43.533Z,4.90
2018-04-07T18:22:10.785Z,5.77
2018-04-07T18:24:38.052Z,4.50
2018-04-07T18:27:05.309Z,5.10
2018-04-07T18:29:32.588Z,4.63
2018-04-07T18:31:59.851Z,5.00
2018-04-07T18:34:27.136Z,4.97
2018-04-07T18:36:54.418Z,4.72
2018-04-07T18:39:21.672Z,5.30
2018-04-07T18:41:48.929Z,4.87
2018-04-07T18:44:16.209Z,4.73
2018-04-07T18:46:43.493Z,4.33
2018-04-07T18:49:11.045Z,4.70
2018-04-07T18:51:38.316Z,5.10
2018-04-07T18:54:06.413Z,5.00
2018-04-07T18:56:33.659Z,4.97
2018-04-07T18:59:00.920Z,5.20
2018-04-07T19:01:28.209Z,4.33
2018-04-07T19:03:55.489Z,4.30
2018-04-07T19:06:22.743Z,5.03
2018-04-07T19:08:50.024Z,4.60
2018-04-07T19:11:17.289Z,5.20
2018-04-07T19:13:44.565Z,5.10
2018-04-07T19:16:11.828Z,5.00
2018-04-07T19:18:39.104Z,5.17
2018-04-07T19:21:06.385Z,4.60
2018-04-07T19:23:33.636Z,5.13
2018-04-07T19:26:00.926Z,4.67
2018-04-07T19:28:28.200Z,5.23
2018-04-07T19:30:55.481Z,5.73
2018-04-07T19:33:22.781Z,5.20
2018-04-07T19:35:50.041Z,5.73
2018-04-07T19:38:17.468Z,5.60
2018-04-07T19:40:44.727Z,5.50
2018-04-07T19:43:12.012Z,5.73
2018-04-07T19:45:39.328Z,6.00
2018-04-07T19:48:06.652Z,5.73
2018-04-07T19:50:33.928Z,5.83
2018-04-07T19:53:01.229Z,6.93
2018-04-07T19:55:28.517Z,5.80
2018-04-07T19:57:55.797Z,6.83
2018-04-07T20:00:23.052Z,6.80
2018-04-07T20:02:50.353Z,6.80
2018-04-07T20:05:17.616Z,6.30
2018-04-07T20:07:44.895Z,6.90
2018-04-07T20:10:12.401Z,7.90
2018-04-07T20:12:39.705Z,7.53
2018-04-07T20:15:06.982Z,7.40
2018-04-07T20:17:34.241Z,6.93
2018-04-07T20:20:01.529Z,6.93
2018-04-07T20:22:28.804Z,7.33
2018-04-07T20:24:56.065Z,7.27
2018-04-07T20:27:23.336Z,7.70
2018-04-07T20:29:50.620Z,6.77
2018-04-07T20:32:17.873Z,7.83
2018-04-07T20:34:45.160Z,7.47
2018-04-07T20:37:12.453Z,6.47
2018-04-07T20:39:39.733Z,7.07
2018-04-07T20:42:13.019Z,7.73
2018-04-07T20:44:40.312Z,6.90
2018-04-07T20:47:07.585Z,7.63
2018-04-07T20:49:34.872Z,6.87
2018-04-07T20:52:02.144Z,8.30
2018-04-07T20:54:29.423Z,7.03
2018-04-07T20:56:56.721Z,7.07
2018-04-07T20:59:23.990Z,7.33
2018-04-07T21:01:51.250Z,7.70
2018-04-07T21:04:18.541Z,7.40
2018-04-07T21:06:45.808Z,8.23
2018-04-07T21:09:13.093Z,7.47
2018-04-07T21:11:40.384Z,8.07
2018-04-07T21:14:07.645Z,8.00
2018-04-07T21:16:34.943Z,7.63
2018-04-07T21:19:02.199Z,8.30
2018-04-07T21:21:29.455Z,8.40
2018-04-07T21:23:56.745Z,7.50
2018-04-07T21:26:24.017Z,8.07
2018-04-07T21:28:51.275Z,7.90
2018-04-07T21:31:18.573Z,8.17
2018-04-07T21:33:45.828Z,8.10
2018-04-07T21:36:13.121Z,7.80
2018-04-07T21:38:40.411Z,8.00
2018-04-07T21:41:07.705Z,8.80
2018-04-07T21:43:34.952Z,7.53
2018-04-07T21:46:02.236Z,7.10
2018-04-07T21:48:29.495Z,6.80
2018-04-07T21:50:56.784Z,7.80
2018-04-07T21:53:24.061Z,7.00
2018-04-07T21:55:51.325Z,7.90
2018-04-07T21:58:18.606Z,8.47
2018-04-07T22:00:45.875Z,8.70
2018-04-07T22:03:13.157Z,7.70
2018-04-07T22:05:40.448Z,8.17
2018-04-07T22:08:08.061Z,7.40
2018-04-07T22:10:35.291Z,8.07
2018-04-07T22:13:02.572Z,8.90
2018-04-07T22:15:29.828Z,7.63
2018-04-07T22:17:57.116Z,7.47
2018-04-07T22:20:24.418Z,7.80
2018-04-07T22:22:51.672Z,8.23
2018-04-07T22:25:18.929Z,7.53
2018-04-07T22:27:46.207Z,7.93
2018-04-07T22:30:13.510Z,7.60
2018-04-07T22:32:40.736Z,7.70
2018-04-07T22:35:08.016Z,7.00
2018-04-07T22:37:35.277Z,8.23
2018-04-07T22:40:02.561Z,7.30
2018-04-07T22:42:29.840Z,8.40
2018-04-07T22:44:57.128Z,7.90
2018-04-07T22:47:24.389Z,7.70
2018-04-07T22:49:51.636Z,7.27
2018-04-07T22:52:18.957Z,7.53
2018-04-07T22:54:46.211Z,8.07
2018-04-07T22:57:13.484Z,8.30
2018-04-07T22:59:40.740Z,8.20
2018-04-07T23:02:08.000Z,8.57
2018-04-07T23:04:35.286Z,8.43
2018-04-07T23:07:02.569Z,7.20
2018-04-07T23:09:29.821Z,8.93
2018-04-07T23:11:57.108Z,8.53
2018-04-07T23:14:24.400Z,8.90
2018-04-07T23:16:51.661Z,8.67
2018-04-07T23:19:18.941Z,9.10
2018-04-07T23:21:46.227Z,8.60
2018-04-07T23:24:14.272Z,8.33
2018-04-07T23:26:41.537Z,8.50
2018-04-07T23:29:08.829Z,9.40
2018-04-07T23:31:36.093Z,8.20
2018-04-07T23:34:03.376Z,8.43
2018-04-07T23:36:30.636Z,8.53
2018-04-07T23:38:57.897Z,9.17
2018-04-07T23:41:25.172Z,9.00
2018-04-07T23:43:52.436Z,8.43
2018-04-07T23:46:19.717Z,8.37
2018-04-07T23:48:46.977Z,8.50
2018-04-07T23:51:14.237Z,8.17
2018-04-07T23:53:41.519Z,8.30
2018-04-07T23:56:08.779Z,7.93
2018-04-07T23:58:36.068Z,8.23
